<?xml version="1.0" encoding="UTF-8" standalone="no" ?>
<gpx xmlns="http://www.topografix.com/GPX/1/1" xmlns:xsi="http://www.w3.org/2001/XMLSchema-instance" xsi:schemaLocation="http://www.topografix.com/GPX/1/1 http://www.topografix.com/GPX/1/1/gpx.xsd" version="1.1" creator="VisuGPX - https://www.visugpx.com">
  <metadata>
    <name>rando les allains cne braud et st louis 8 km</name>
    <desc><![CDATA[photos de la rando dispo en suivant le lien [url]http://rando.pedestre.33.over-blog.com/2020/09/rando-les-allains-cne-de-braud-et-st-louis-8-km.html[/url]]]></desc>
  </metadata>
  <trk>
    <name><![CDATA[rando les allains cne braud et st louis 8 km]]></name>
    <trkseg>
      <trkpt lat="45.26343" lon="-0.61983">
        <ele>5</ele>
        <time>2017-12-07T16:54:20Z</time>
      </trkpt>
      <trkpt lat="45.26347" lon="-0.61977">
        <ele>5</ele>
        <time>2017-12-07T16:56:20Z</time>
      </trkpt>
      <trkpt lat="45.26372" lon="-0.61938">
        <ele>4</ele>
        <time>2017-12-07T16:58:20Z</time>
      </trkpt>
      <trkpt lat="45.26372" lon="-0.61938">
        <ele>4</ele>
        <time>2017-12-07T17:00:20Z</time>
      </trkpt>
      <trkpt lat="45.26371" lon="-0.61919">
        <ele>4</ele>
        <time>2017-12-07T17:02:20Z</time>
      </trkpt>
      <trkpt lat="45.26362" lon="-0.61867">
        <ele>4</ele>
        <time>2017-12-07T17:04:20Z</time>
      </trkpt>
      <trkpt lat="45.26352" lon="-0.61798">
        <ele>5</ele>
        <time>2017-12-07T17:06:20Z</time>
      </trkpt>
      <trkpt lat="45.26344" lon="-0.61747">
        <ele>5</ele>
        <time>2017-12-07T17:08:20Z</time>
      </trkpt>
      <trkpt lat="45.26339" lon="-0.61721">
        <ele>5</ele>
        <time>2017-12-07T17:10:20Z</time>
      </trkpt>
      <trkpt lat="45.26327" lon="-0.61671">
        <ele>6</ele>
        <time>2017-12-07T17:12:20Z</time>
      </trkpt>
      <trkpt lat="45.26319" lon="-0.61626">
        <ele>6</ele>
        <time>2017-12-07T17:14:20Z</time>
      </trkpt>
      <trkpt lat="45.26307" lon="-0.61543">
        <ele>7</ele>
        <time>2017-12-07T17:16:20Z</time>
      </trkpt>
      <trkpt lat="45.26296" lon="-0.61472">
        <ele>8</ele>
        <time>2017-12-07T17:18:20Z</time>
      </trkpt>
      <trkpt lat="45.26294" lon="-0.61463">
        <ele>9</ele>
        <time>2017-12-07T17:20:20Z</time>
      </trkpt>
      <trkpt lat="45.26289" lon="-0.61449">
        <ele>9</ele>
        <time>2017-12-07T17:22:20Z</time>
      </trkpt>
      <trkpt lat="45.26281" lon="-0.61431">
        <ele>9</ele>
        <time>2017-12-07T17:24:20Z</time>
      </trkpt>
      <trkpt lat="45.2627" lon="-0.61415">
        <ele>10</ele>
        <time>2017-12-07T17:26:20Z</time>
      </trkpt>
      <trkpt lat="45.26261" lon="-0.61398">
        <ele>10</ele>
        <time>2017-12-07T17:28:20Z</time>
      </trkpt>
      <trkpt lat="45.26259" lon="-0.61393">
        <ele>10</ele>
        <time>2017-12-07T17:30:20Z</time>
      </trkpt>
      <trkpt lat="45.26259" lon="-0.61393">
        <ele>10</ele>
        <time>2017-12-07T17:32:20Z</time>
      </trkpt>
      <trkpt lat="45.26261" lon="-0.61385">
        <ele>9</ele>
        <time>2017-12-07T17:34:20Z</time>
      </trkpt>
      <trkpt lat="45.26284" lon="-0.61347">
        <ele>9</ele>
        <time>2017-12-07T17:36:20Z</time>
      </trkpt>
      <trkpt lat="45.26297" lon="-0.61324">
        <ele>8</ele>
        <time>2017-12-07T17:38:20Z</time>
      </trkpt>
      <trkpt lat="45.26302" lon="-0.61315">
        <ele>8</ele>
        <time>2017-12-07T17:40:20Z</time>
      </trkpt>
      <trkpt lat="45.26308" lon="-0.61305">
        <ele>8</ele>
        <time>2017-12-07T17:42:20Z</time>
      </trkpt>
      <trkpt lat="45.2631" lon="-0.61301">
        <ele>8</ele>
        <time>2017-12-07T17:44:20Z</time>
      </trkpt>
      <trkpt lat="45.26312" lon="-0.61297">
        <ele>8</ele>
        <time>2017-12-07T17:46:20Z</time>
      </trkpt>
      <trkpt lat="45.26314" lon="-0.61294">
        <ele>8</ele>
        <time>2017-12-07T17:48:20Z</time>
      </trkpt>
      <trkpt lat="45.26315" lon="-0.61291">
        <ele>8</ele>
        <time>2017-12-07T17:50:20Z</time>
      </trkpt>
      <trkpt lat="45.26317" lon="-0.61289">
        <ele>8</ele>
        <time>2017-12-07T17:52:20Z</time>
      </trkpt>
      <trkpt lat="45.26318" lon="-0.61286">
        <ele>8</ele>
        <time>2017-12-07T17:54:20Z</time>
      </trkpt>
      <trkpt lat="45.26318" lon="-0.61284">
        <ele>8</ele>
        <time>2017-12-07T17:56:20Z</time>
      </trkpt>
      <trkpt lat="45.26319" lon="-0.61282">
        <ele>8</ele>
        <time>2017-12-07T17:58:20Z</time>
      </trkpt>
      <trkpt lat="45.26319" lon="-0.61281">
        <ele>8</ele>
        <time>2017-12-07T18:00:20Z</time>
      </trkpt>
      <trkpt lat="45.26318" lon="-0.61279">
        <ele>8</ele>
        <time>2017-12-07T18:02:20Z</time>
      </trkpt>
      <trkpt lat="45.26317" lon="-0.61277">
        <ele>8</ele>
        <time>2017-12-07T18:04:20Z</time>
      </trkpt>
      <trkpt lat="45.26316" lon="-0.61274">
        <ele>8</ele>
        <time>2017-12-07T18:06:20Z</time>
      </trkpt>
      <trkpt lat="45.26315" lon="-0.61272">
        <ele>8</ele>
        <time>2017-12-07T18:08:20Z</time>
      </trkpt>
      <trkpt lat="45.26314" lon="-0.61269">
        <ele>8</ele>
        <time>2017-12-07T18:10:20Z</time>
      </trkpt>
      <trkpt lat="45.26313" lon="-0.61266">
        <ele>8</ele>
        <time>2017-12-07T18:12:20Z</time>
      </trkpt>
      <trkpt lat="45.26313" lon="-0.61263">
        <ele>8</ele>
        <time>2017-12-07T18:14:20Z</time>
      </trkpt>
      <trkpt lat="45.26313" lon="-0.6126">
        <ele>8</ele>
        <time>2017-12-07T18:16:20Z</time>
      </trkpt>
      <trkpt lat="45.26314" lon="-0.61257">
        <ele>8</ele>
        <time>2017-12-07T18:18:20Z</time>
      </trkpt>
      <trkpt lat="45.26318" lon="-0.61249">
        <ele>8</ele>
        <time>2017-12-07T18:20:20Z</time>
      </trkpt>
      <trkpt lat="45.26322" lon="-0.61244">
        <ele>8</ele>
        <time>2017-12-07T18:22:20Z</time>
      </trkpt>
      <trkpt lat="45.2636" lon="-0.61171">
        <ele>9</ele>
        <time>2017-12-07T18:24:20Z</time>
      </trkpt>
      <trkpt lat="45.26398" lon="-0.61104">
        <ele>9</ele>
        <time>2017-12-07T18:26:20Z</time>
      </trkpt>
      <trkpt lat="45.26404" lon="-0.61094">
        <ele>9</ele>
        <time>2017-12-07T18:28:20Z</time>
      </trkpt>
      <trkpt lat="45.26409" lon="-0.61081">
        <ele>9</ele>
        <time>2017-12-07T18:30:20Z</time>
      </trkpt>
      <trkpt lat="45.26418" lon="-0.61066">
        <ele>9</ele>
        <time>2017-12-07T18:32:20Z</time>
      </trkpt>
      <trkpt lat="45.26433" lon="-0.61046">
        <ele>9</ele>
        <time>2017-12-07T18:34:20Z</time>
      </trkpt>
      <trkpt lat="45.2644" lon="-0.61034">
        <ele>9</ele>
        <time>2017-12-07T18:36:20Z</time>
      </trkpt>
      <trkpt lat="45.26443" lon="-0.61026">
        <ele>9</ele>
        <time>2017-12-07T18:38:20Z</time>
      </trkpt>
      <trkpt lat="45.26444" lon="-0.61014">
        <ele>9</ele>
        <time>2017-12-07T18:40:20Z</time>
      </trkpt>
      <trkpt lat="45.26448" lon="-0.60999">
        <ele>9</ele>
        <time>2017-12-07T18:42:20Z</time>
      </trkpt>
      <trkpt lat="45.26457" lon="-0.60975">
        <ele>9</ele>
        <time>2017-12-07T18:44:20Z</time>
      </trkpt>
      <trkpt lat="45.26467" lon="-0.60952">
        <ele>9</ele>
        <time>2017-12-07T18:46:20Z</time>
      </trkpt>
      <trkpt lat="45.26494" lon="-0.60893">
        <ele>9</ele>
        <time>2017-12-07T18:48:20Z</time>
      </trkpt>
      <trkpt lat="45.26517" lon="-0.60843">
        <ele>8</ele>
        <time>2017-12-07T18:50:20Z</time>
      </trkpt>
      <trkpt lat="45.26519" lon="-0.60837">
        <ele>8</ele>
        <time>2017-12-07T18:52:20Z</time>
      </trkpt>
      <trkpt lat="45.26519" lon="-0.60837">
        <ele>8</ele>
        <time>2017-12-07T18:54:20Z</time>
      </trkpt>
      <trkpt lat="45.26535" lon="-0.60868">
        <ele>8</ele>
        <time>2017-12-07T18:56:20Z</time>
      </trkpt>
      <trkpt lat="45.26558" lon="-0.60923">
        <ele>8</ele>
        <time>2017-12-07T18:58:20Z</time>
      </trkpt>
      <trkpt lat="45.26577" lon="-0.6096">
        <ele>8</ele>
        <time>2017-12-07T19:00:20Z</time>
      </trkpt>
      <trkpt lat="45.26593" lon="-0.60985">
        <ele>8</ele>
        <time>2017-12-07T19:02:20Z</time>
      </trkpt>
      <trkpt lat="45.26612" lon="-0.61017">
        <ele>8</ele>
        <time>2017-12-07T19:04:20Z</time>
      </trkpt>
      <trkpt lat="45.26628" lon="-0.61046">
        <ele>8</ele>
        <time>2017-12-07T19:06:20Z</time>
      </trkpt>
      <trkpt lat="45.2664" lon="-0.61066">
        <ele>8</ele>
        <time>2017-12-07T19:08:20Z</time>
      </trkpt>
      <trkpt lat="45.26681" lon="-0.61121">
        <ele>8</ele>
        <time>2017-12-07T19:10:20Z</time>
      </trkpt>
      <trkpt lat="45.26722" lon="-0.61174">
        <ele>8</ele>
        <time>2017-12-07T19:12:20Z</time>
      </trkpt>
      <trkpt lat="45.2673" lon="-0.61183">
        <ele>9</ele>
        <time>2017-12-07T19:14:20Z</time>
      </trkpt>
      <trkpt lat="45.2673" lon="-0.61183">
        <ele>9</ele>
        <time>2017-12-07T19:16:20Z</time>
      </trkpt>
      <trkpt lat="45.2673" lon="-0.61179">
        <ele>9</ele>
        <time>2017-12-07T19:18:20Z</time>
      </trkpt>
      <trkpt lat="45.26734" lon="-0.61159">
        <ele>9</ele>
        <time>2017-12-07T19:20:20Z</time>
      </trkpt>
      <trkpt lat="45.2674" lon="-0.61143">
        <ele>9</ele>
        <time>2017-12-07T19:22:20Z</time>
      </trkpt>
      <trkpt lat="45.26745" lon="-0.61129">
        <ele>8</ele>
        <time>2017-12-07T19:24:20Z</time>
      </trkpt>
      <trkpt lat="45.26748" lon="-0.61123">
        <ele>8</ele>
        <time>2017-12-07T19:26:20Z</time>
      </trkpt>
      <trkpt lat="45.26751" lon="-0.61118">
        <ele>8</ele>
        <time>2017-12-07T19:28:20Z</time>
      </trkpt>
      <trkpt lat="45.26768" lon="-0.61088">
        <ele>8</ele>
        <time>2017-12-07T19:30:20Z</time>
      </trkpt>
      <trkpt lat="45.2677" lon="-0.61081">
        <ele>8</ele>
        <time>2017-12-07T19:32:20Z</time>
      </trkpt>
      <trkpt lat="45.26789" lon="-0.61046">
        <ele>8</ele>
        <time>2017-12-07T19:34:20Z</time>
      </trkpt>
      <trkpt lat="45.26807" lon="-0.61015">
        <ele>8</ele>
        <time>2017-12-07T19:36:20Z</time>
      </trkpt>
      <trkpt lat="45.26828" lon="-0.60981">
        <ele>7</ele>
        <time>2017-12-07T19:38:20Z</time>
      </trkpt>
      <trkpt lat="45.26855" lon="-0.60936">
        <ele>8</ele>
        <time>2017-12-07T19:40:20Z</time>
      </trkpt>
      <trkpt lat="45.26887" lon="-0.60886">
        <ele>8</ele>
        <time>2017-12-07T19:42:20Z</time>
      </trkpt>
      <trkpt lat="45.26909" lon="-0.60847">
        <ele>9</ele>
        <time>2017-12-07T19:44:20Z</time>
      </trkpt>
      <trkpt lat="45.26924" lon="-0.60823">
        <ele>9</ele>
        <time>2017-12-07T19:46:20Z</time>
      </trkpt>
      <trkpt lat="45.26936" lon="-0.60806">
        <ele>9</ele>
        <time>2017-12-07T19:48:20Z</time>
      </trkpt>
      <trkpt lat="45.26949" lon="-0.6079">
        <ele>9</ele>
        <time>2017-12-07T19:50:20Z</time>
      </trkpt>
      <trkpt lat="45.26958" lon="-0.60779">
        <ele>9</ele>
        <time>2017-12-07T19:52:20Z</time>
      </trkpt>
      <trkpt lat="45.26969" lon="-0.60763">
        <ele>10</ele>
        <time>2017-12-07T19:54:20Z</time>
      </trkpt>
      <trkpt lat="45.26969" lon="-0.60763">
        <ele>10</ele>
        <time>2017-12-07T19:56:20Z</time>
      </trkpt>
      <trkpt lat="45.26979" lon="-0.6076">
        <ele>10</ele>
        <time>2017-12-07T19:58:20Z</time>
      </trkpt>
      <trkpt lat="45.2699" lon="-0.60754">
        <ele>10</ele>
        <time>2017-12-07T20:00:20Z</time>
      </trkpt>
      <trkpt lat="45.27" lon="-0.6075">
        <ele>10</ele>
        <time>2017-12-07T20:02:20Z</time>
      </trkpt>
      <trkpt lat="45.27006" lon="-0.60749">
        <ele>10</ele>
        <time>2017-12-07T20:04:20Z</time>
      </trkpt>
      <trkpt lat="45.27006" lon="-0.60749">
        <ele>10</ele>
        <time>2017-12-07T20:06:20Z</time>
      </trkpt>
      <trkpt lat="45.27012" lon="-0.60734">
        <ele>10</ele>
        <time>2017-12-07T20:08:20Z</time>
      </trkpt>
      <trkpt lat="45.27026" lon="-0.60707">
        <ele>10</ele>
        <time>2017-12-07T20:10:20Z</time>
      </trkpt>
      <trkpt lat="45.27042" lon="-0.6067">
        <ele>10</ele>
        <time>2017-12-07T20:12:20Z</time>
      </trkpt>
      <trkpt lat="45.27043" lon="-0.60666">
        <ele>10</ele>
        <time>2017-12-07T20:14:20Z</time>
      </trkpt>
      <trkpt lat="45.27068" lon="-0.60608">
        <ele>11</ele>
        <time>2017-12-07T20:16:20Z</time>
      </trkpt>
      <trkpt lat="45.27076" lon="-0.60587">
        <ele>11</ele>
        <time>2017-12-07T20:18:20Z</time>
      </trkpt>
      <trkpt lat="45.27089" lon="-0.6055">
        <ele>11</ele>
        <time>2017-12-07T20:20:20Z</time>
      </trkpt>
      <trkpt lat="45.27123" lon="-0.60462">
        <ele>11</ele>
        <time>2017-12-07T20:22:20Z</time>
      </trkpt>
      <trkpt lat="45.27128" lon="-0.60446">
        <ele>11</ele>
        <time>2017-12-07T20:24:20Z</time>
      </trkpt>
      <trkpt lat="45.27133" lon="-0.60432">
        <ele>11</ele>
        <time>2017-12-07T20:26:20Z</time>
      </trkpt>
      <trkpt lat="45.27136" lon="-0.60421">
        <ele>12</ele>
        <time>2017-12-07T20:28:20Z</time>
      </trkpt>
      <trkpt lat="45.27138" lon="-0.60413">
        <ele>12</ele>
        <time>2017-12-07T20:30:20Z</time>
      </trkpt>
      <trkpt lat="45.27139" lon="-0.60402">
        <ele>12</ele>
        <time>2017-12-07T20:32:20Z</time>
      </trkpt>
      <trkpt lat="45.2714" lon="-0.60391">
        <ele>12</ele>
        <time>2017-12-07T20:34:20Z</time>
      </trkpt>
      <trkpt lat="45.2714" lon="-0.60373">
        <ele>12</ele>
        <time>2017-12-07T20:36:20Z</time>
      </trkpt>
      <trkpt lat="45.27138" lon="-0.60351">
        <ele>12</ele>
        <time>2017-12-07T20:38:20Z</time>
      </trkpt>
      <trkpt lat="45.27137" lon="-0.60324">
        <ele>13</ele>
        <time>2017-12-07T20:40:20Z</time>
      </trkpt>
      <trkpt lat="45.27136" lon="-0.60306">
        <ele>13</ele>
        <time>2017-12-07T20:42:20Z</time>
      </trkpt>
      <trkpt lat="45.27136" lon="-0.60283">
        <ele>13</ele>
        <time>2017-12-07T20:44:20Z</time>
      </trkpt>
      <trkpt lat="45.27136" lon="-0.60276">
        <ele>13</ele>
        <time>2017-12-07T20:46:20Z</time>
      </trkpt>
      <trkpt lat="45.27136" lon="-0.60276">
        <ele>13</ele>
        <time>2017-12-07T20:48:20Z</time>
      </trkpt>
      <trkpt lat="45.27136" lon="-0.6026">
        <ele>13</ele>
        <time>2017-12-07T20:50:20Z</time>
      </trkpt>
      <trkpt lat="45.27137" lon="-0.6024">
        <ele>13</ele>
        <time>2017-12-07T20:52:20Z</time>
      </trkpt>
      <trkpt lat="45.27137" lon="-0.60224">
        <ele>13</ele>
        <time>2017-12-07T20:54:20Z</time>
      </trkpt>
      <trkpt lat="45.27137" lon="-0.60208">
        <ele>14</ele>
        <time>2017-12-07T20:56:20Z</time>
      </trkpt>
      <trkpt lat="45.27136" lon="-0.60193">
        <ele>14</ele>
        <time>2017-12-07T20:58:20Z</time>
      </trkpt>
      <trkpt lat="45.27135" lon="-0.60173">
        <ele>14</ele>
        <time>2017-12-07T21:00:20Z</time>
      </trkpt>
      <trkpt lat="45.27134" lon="-0.60148">
        <ele>14</ele>
        <time>2017-12-07T21:02:20Z</time>
      </trkpt>
      <trkpt lat="45.27132" lon="-0.60124">
        <ele>15</ele>
        <time>2017-12-07T21:04:20Z</time>
      </trkpt>
      <trkpt lat="45.27131" lon="-0.601">
        <ele>15</ele>
        <time>2017-12-07T21:06:20Z</time>
      </trkpt>
      <trkpt lat="45.27132" lon="-0.60078">
        <ele>15</ele>
        <time>2017-12-07T21:08:20Z</time>
      </trkpt>
      <trkpt lat="45.27132" lon="-0.6006">
        <ele>16</ele>
        <time>2017-12-07T21:10:20Z</time>
      </trkpt>
      <trkpt lat="45.27133" lon="-0.60044">
        <ele>16</ele>
        <time>2017-12-07T21:12:20Z</time>
      </trkpt>
      <trkpt lat="45.27134" lon="-0.60022">
        <ele>16</ele>
        <time>2017-12-07T21:14:20Z</time>
      </trkpt>
      <trkpt lat="45.27136" lon="-0.60001">
        <ele>17</ele>
        <time>2017-12-07T21:16:20Z</time>
      </trkpt>
      <trkpt lat="45.27138" lon="-0.59983">
        <ele>17</ele>
        <time>2017-12-07T21:18:20Z</time>
      </trkpt>
      <trkpt lat="45.2714" lon="-0.5996">
        <ele>17</ele>
        <time>2017-12-07T21:20:20Z</time>
      </trkpt>
      <trkpt lat="45.27143" lon="-0.59941">
        <ele>17</ele>
        <time>2017-12-07T21:22:20Z</time>
      </trkpt>
      <trkpt lat="45.27146" lon="-0.5992">
        <ele>17</ele>
        <time>2017-12-07T21:24:20Z</time>
      </trkpt>
      <trkpt lat="45.2715" lon="-0.599">
        <ele>17</ele>
        <time>2017-12-07T21:26:20Z</time>
      </trkpt>
      <trkpt lat="45.27157" lon="-0.59868">
        <ele>17</ele>
        <time>2017-12-07T21:28:20Z</time>
      </trkpt>
      <trkpt lat="45.2716" lon="-0.5985">
        <ele>17</ele>
        <time>2017-12-07T21:30:20Z</time>
      </trkpt>
      <trkpt lat="45.27162" lon="-0.59836">
        <ele>17</ele>
        <time>2017-12-07T21:32:20Z</time>
      </trkpt>
      <trkpt lat="45.27165" lon="-0.59809">
        <ele>17</ele>
        <time>2017-12-07T21:34:20Z</time>
      </trkpt>
      <trkpt lat="45.27167" lon="-0.59788">
        <ele>17</ele>
        <time>2017-12-07T21:36:20Z</time>
      </trkpt>
      <trkpt lat="45.27169" lon="-0.59766">
        <ele>17</ele>
        <time>2017-12-07T21:38:20Z</time>
      </trkpt>
      <trkpt lat="45.2717" lon="-0.59748">
        <ele>17</ele>
        <time>2017-12-07T21:40:20Z</time>
      </trkpt>
      <trkpt lat="45.2717" lon="-0.59728">
        <ele>17</ele>
        <time>2017-12-07T21:42:20Z</time>
      </trkpt>
      <trkpt lat="45.27169" lon="-0.59711">
        <ele>16</ele>
        <time>2017-12-07T21:44:20Z</time>
      </trkpt>
      <trkpt lat="45.27164" lon="-0.59675">
        <ele>16</ele>
        <time>2017-12-07T21:46:20Z</time>
      </trkpt>
      <trkpt lat="45.27164" lon="-0.59675">
        <ele>16</ele>
        <time>2017-12-07T21:48:20Z</time>
      </trkpt>
      <trkpt lat="45.27156" lon="-0.59637">
        <ele>16</ele>
        <time>2017-12-07T21:50:20Z</time>
      </trkpt>
      <trkpt lat="45.27145" lon="-0.59588">
        <ele>17</ele>
        <time>2017-12-07T21:52:20Z</time>
      </trkpt>
      <trkpt lat="45.27139" lon="-0.59566">
        <ele>17</ele>
        <time>2017-12-07T21:54:20Z</time>
      </trkpt>
      <trkpt lat="45.27138" lon="-0.59562">
        <ele>17</ele>
        <time>2017-12-07T21:56:20Z</time>
      </trkpt>
      <trkpt lat="45.27133" lon="-0.5955">
        <ele>18</ele>
        <time>2017-12-07T21:58:20Z</time>
      </trkpt>
      <trkpt lat="45.27118" lon="-0.59516">
        <ele>18</ele>
        <time>2017-12-07T22:00:20Z</time>
      </trkpt>
      <trkpt lat="45.27103" lon="-0.59487">
        <ele>19</ele>
        <time>2017-12-07T22:02:20Z</time>
      </trkpt>
      <trkpt lat="45.27092" lon="-0.59471">
        <ele>19</ele>
        <time>2017-12-07T22:04:20Z</time>
      </trkpt>
      <trkpt lat="45.27081" lon="-0.59457">
        <ele>20</ele>
        <time>2017-12-07T22:06:20Z</time>
      </trkpt>
      <trkpt lat="45.2707" lon="-0.5944">
        <ele>20</ele>
        <time>2017-12-07T22:08:20Z</time>
      </trkpt>
      <trkpt lat="45.27061" lon="-0.59425">
        <ele>20</ele>
        <time>2017-12-07T22:10:20Z</time>
      </trkpt>
      <trkpt lat="45.27052" lon="-0.59405">
        <ele>19</ele>
        <time>2017-12-07T22:12:20Z</time>
      </trkpt>
      <trkpt lat="45.27048" lon="-0.59394">
        <ele>19</ele>
        <time>2017-12-07T22:14:20Z</time>
      </trkpt>
      <trkpt lat="45.27048" lon="-0.59394">
        <ele>19</ele>
        <time>2017-12-07T22:16:20Z</time>
      </trkpt>
      <trkpt lat="45.27026" lon="-0.59412">
        <ele>19</ele>
        <time>2017-12-07T22:18:20Z</time>
      </trkpt>
      <trkpt lat="45.26979" lon="-0.59448">
        <ele>19</ele>
        <time>2017-12-07T22:20:20Z</time>
      </trkpt>
      <trkpt lat="45.26949" lon="-0.59473">
        <ele>19</ele>
        <time>2017-12-07T22:22:20Z</time>
      </trkpt>
      <trkpt lat="45.26913" lon="-0.59501">
        <ele>19</ele>
        <time>2017-12-07T22:24:20Z</time>
      </trkpt>
      <trkpt lat="45.26853" lon="-0.59548">
        <ele>21</ele>
        <time>2017-12-07T22:26:20Z</time>
      </trkpt>
      <trkpt lat="45.26849" lon="-0.59551">
        <ele>21</ele>
        <time>2017-12-07T22:28:20Z</time>
      </trkpt>
      <trkpt lat="45.26843" lon="-0.5955">
        <ele>21</ele>
        <time>2017-12-07T22:30:20Z</time>
      </trkpt>
      <trkpt lat="45.26839" lon="-0.59548">
        <ele>21</ele>
        <time>2017-12-07T22:32:20Z</time>
      </trkpt>
      <trkpt lat="45.26831" lon="-0.59541">
        <ele>21</ele>
        <time>2017-12-07T22:34:20Z</time>
      </trkpt>
      <trkpt lat="45.26827" lon="-0.59538">
        <ele>21</ele>
        <time>2017-12-07T22:36:20Z</time>
      </trkpt>
      <trkpt lat="45.26822" lon="-0.59538">
        <ele>21</ele>
        <time>2017-12-07T22:38:20Z</time>
      </trkpt>
      <trkpt lat="45.26814" lon="-0.5954">
        <ele>21</ele>
        <time>2017-12-07T22:40:20Z</time>
      </trkpt>
      <trkpt lat="45.26808" lon="-0.59543">
        <ele>21</ele>
        <time>2017-12-07T22:42:20Z</time>
      </trkpt>
      <trkpt lat="45.26752" lon="-0.59572">
        <ele>21</ele>
        <time>2017-12-07T22:44:20Z</time>
      </trkpt>
      <trkpt lat="45.26719" lon="-0.59591">
        <ele>21</ele>
        <time>2017-12-07T22:46:20Z</time>
      </trkpt>
      <trkpt lat="45.26716" lon="-0.59591">
        <ele>20</ele>
        <time>2017-12-07T22:48:20Z</time>
      </trkpt>
      <trkpt lat="45.26713" lon="-0.59589">
        <ele>20</ele>
        <time>2017-12-07T22:50:20Z</time>
      </trkpt>
      <trkpt lat="45.26709" lon="-0.59585">
        <ele>20</ele>
        <time>2017-12-07T22:52:20Z</time>
      </trkpt>
      <trkpt lat="45.26705" lon="-0.59578">
        <ele>20</ele>
        <time>2017-12-07T22:54:20Z</time>
      </trkpt>
      <trkpt lat="45.26693" lon="-0.59533">
        <ele>21</ele>
        <time>2017-12-07T22:56:20Z</time>
      </trkpt>
      <trkpt lat="45.26689" lon="-0.59526">
        <ele>21</ele>
        <time>2017-12-07T22:58:20Z</time>
      </trkpt>
      <trkpt lat="45.26686" lon="-0.59525">
        <ele>21</ele>
        <time>2017-12-07T23:00:20Z</time>
      </trkpt>
      <trkpt lat="45.26682" lon="-0.59525">
        <ele>21</ele>
        <time>2017-12-07T23:02:20Z</time>
      </trkpt>
      <trkpt lat="45.26679" lon="-0.59525">
        <ele>21</ele>
        <time>2017-12-07T23:04:20Z</time>
      </trkpt>
      <trkpt lat="45.26673" lon="-0.59529">
        <ele>21</ele>
        <time>2017-12-07T23:06:20Z</time>
      </trkpt>
      <trkpt lat="45.26645" lon="-0.59547">
        <ele>20</ele>
        <time>2017-12-07T23:08:20Z</time>
      </trkpt>
      <trkpt lat="45.26612" lon="-0.59564">
        <ele>19</ele>
        <time>2017-12-07T23:10:20Z</time>
      </trkpt>
      <trkpt lat="45.26585" lon="-0.5958">
        <ele>19</ele>
        <time>2017-12-07T23:12:20Z</time>
      </trkpt>
      <trkpt lat="45.26554" lon="-0.59598">
        <ele>18</ele>
        <time>2017-12-07T23:14:20Z</time>
      </trkpt>
      <trkpt lat="45.26546" lon="-0.59601">
        <ele>18</ele>
        <time>2017-12-07T23:16:20Z</time>
      </trkpt>
      <trkpt lat="45.26539" lon="-0.59601">
        <ele>18</ele>
        <time>2017-12-07T23:18:20Z</time>
      </trkpt>
      <trkpt lat="45.2653" lon="-0.59598">
        <ele>18</ele>
        <time>2017-12-07T23:20:20Z</time>
      </trkpt>
      <trkpt lat="45.26518" lon="-0.59591">
        <ele>18</ele>
        <time>2017-12-07T23:22:20Z</time>
      </trkpt>
      <trkpt lat="45.26511" lon="-0.59585">
        <ele>18</ele>
        <time>2017-12-07T23:24:20Z</time>
      </trkpt>
      <trkpt lat="45.26506" lon="-0.59581">
        <ele>18</ele>
        <time>2017-12-07T23:26:20Z</time>
      </trkpt>
      <trkpt lat="45.26499" lon="-0.5958">
        <ele>18</ele>
        <time>2017-12-07T23:28:20Z</time>
      </trkpt>
      <trkpt lat="45.26492" lon="-0.59583">
        <ele>18</ele>
        <time>2017-12-07T23:30:20Z</time>
      </trkpt>
      <trkpt lat="45.26469" lon="-0.59596">
        <ele>17</ele>
        <time>2017-12-07T23:32:20Z</time>
      </trkpt>
      <trkpt lat="45.26437" lon="-0.59614">
        <ele>17</ele>
        <time>2017-12-07T23:34:20Z</time>
      </trkpt>
      <trkpt lat="45.26424" lon="-0.59623">
        <ele>16</ele>
        <time>2017-12-07T23:36:20Z</time>
      </trkpt>
      <trkpt lat="45.26405" lon="-0.59639">
        <ele>16</ele>
        <time>2017-12-07T23:38:20Z</time>
      </trkpt>
      <trkpt lat="45.26388" lon="-0.59655">
        <ele>15</ele>
        <time>2017-12-07T23:40:20Z</time>
      </trkpt>
      <trkpt lat="45.26378" lon="-0.5966">
        <ele>15</ele>
        <time>2017-12-07T23:42:20Z</time>
      </trkpt>
      <trkpt lat="45.26368" lon="-0.59663">
        <ele>15</ele>
        <time>2017-12-07T23:44:20Z</time>
      </trkpt>
      <trkpt lat="45.26347" lon="-0.59662">
        <ele>15</ele>
        <time>2017-12-07T23:46:20Z</time>
      </trkpt>
      <trkpt lat="45.26326" lon="-0.59659">
        <ele>15</ele>
        <time>2017-12-07T23:48:20Z</time>
      </trkpt>
      <trkpt lat="45.26312" lon="-0.59657">
        <ele>15</ele>
        <time>2017-12-07T23:50:20Z</time>
      </trkpt>
      <trkpt lat="45.26295" lon="-0.59653">
        <ele>15</ele>
        <time>2017-12-07T23:52:20Z</time>
      </trkpt>
      <trkpt lat="45.26278" lon="-0.5965">
        <ele>15</ele>
        <time>2017-12-07T23:54:20Z</time>
      </trkpt>
      <trkpt lat="45.26262" lon="-0.59646">
        <ele>15</ele>
        <time>2017-12-07T23:56:20Z</time>
      </trkpt>
      <trkpt lat="45.26247" lon="-0.59643">
        <ele>15</ele>
        <time>2017-12-07T23:58:20Z</time>
      </trkpt>
      <trkpt lat="45.26239" lon="-0.59642">
        <ele>15</ele>
        <time>2017-12-08T00:00:20Z</time>
      </trkpt>
      <trkpt lat="45.26234" lon="-0.59641">
        <ele>15</ele>
        <time>2017-12-08T00:02:20Z</time>
      </trkpt>
      <trkpt lat="45.26229" lon="-0.5964">
        <ele>15</ele>
        <time>2017-12-08T00:04:20Z</time>
      </trkpt>
      <trkpt lat="45.26223" lon="-0.5964">
        <ele>15</ele>
        <time>2017-12-08T00:06:20Z</time>
      </trkpt>
      <trkpt lat="45.26216" lon="-0.59642">
        <ele>15</ele>
        <time>2017-12-08T00:08:20Z</time>
      </trkpt>
      <trkpt lat="45.26211" lon="-0.59643">
        <ele>15</ele>
        <time>2017-12-08T00:10:20Z</time>
      </trkpt>
      <trkpt lat="45.26206" lon="-0.59648">
        <ele>15</ele>
        <time>2017-12-08T00:12:20Z</time>
      </trkpt>
      <trkpt lat="45.26202" lon="-0.59653">
        <ele>15</ele>
        <time>2017-12-08T00:14:20Z</time>
      </trkpt>
      <trkpt lat="45.26196" lon="-0.59662">
        <ele>15</ele>
        <time>2017-12-08T00:16:20Z</time>
      </trkpt>
      <trkpt lat="45.26164" lon="-0.59722">
        <ele>15</ele>
        <time>2017-12-08T00:18:20Z</time>
      </trkpt>
      <trkpt lat="45.26161" lon="-0.59725">
        <ele>15</ele>
        <time>2017-12-08T00:20:20Z</time>
      </trkpt>
      <trkpt lat="45.26157" lon="-0.59725">
        <ele>15</ele>
        <time>2017-12-08T00:22:20Z</time>
      </trkpt>
      <trkpt lat="45.26154" lon="-0.59723">
        <ele>15</ele>
        <time>2017-12-08T00:24:20Z</time>
      </trkpt>
      <trkpt lat="45.2615" lon="-0.59718">
        <ele>15</ele>
        <time>2017-12-08T00:26:20Z</time>
      </trkpt>
      <trkpt lat="45.2614" lon="-0.59696">
        <ele>15</ele>
        <time>2017-12-08T00:28:20Z</time>
      </trkpt>
      <trkpt lat="45.26138" lon="-0.59694">
        <ele>15</ele>
        <time>2017-12-08T00:30:20Z</time>
      </trkpt>
      <trkpt lat="45.26135" lon="-0.59694">
        <ele>15</ele>
        <time>2017-12-08T00:32:20Z</time>
      </trkpt>
      <trkpt lat="45.26131" lon="-0.59696">
        <ele>15</ele>
        <time>2017-12-08T00:34:20Z</time>
      </trkpt>
      <trkpt lat="45.26125" lon="-0.59707">
        <ele>15</ele>
        <time>2017-12-08T00:36:20Z</time>
      </trkpt>
      <trkpt lat="45.2611" lon="-0.59727">
        <ele>15</ele>
        <time>2017-12-08T00:38:20Z</time>
      </trkpt>
      <trkpt lat="45.2609" lon="-0.59754">
        <ele>15</ele>
        <time>2017-12-08T00:40:20Z</time>
      </trkpt>
      <trkpt lat="45.26068" lon="-0.59786">
        <ele>14</ele>
        <time>2017-12-08T00:42:20Z</time>
      </trkpt>
      <trkpt lat="45.26056" lon="-0.59802">
        <ele>14</ele>
        <time>2017-12-08T00:44:20Z</time>
      </trkpt>
      <trkpt lat="45.26041" lon="-0.59816">
        <ele>13</ele>
        <time>2017-12-08T00:46:20Z</time>
      </trkpt>
      <trkpt lat="45.2602" lon="-0.59833">
        <ele>13</ele>
        <time>2017-12-08T00:48:20Z</time>
      </trkpt>
      <trkpt lat="45.26001" lon="-0.59849">
        <ele>13</ele>
        <time>2017-12-08T00:50:20Z</time>
      </trkpt>
      <trkpt lat="45.25988" lon="-0.59861">
        <ele>13</ele>
        <time>2017-12-08T00:52:20Z</time>
      </trkpt>
      <trkpt lat="45.25983" lon="-0.59867">
        <ele>14</ele>
        <time>2017-12-08T00:54:20Z</time>
      </trkpt>
      <trkpt lat="45.25926" lon="-0.59925">
        <ele>16</ele>
        <time>2017-12-08T00:56:20Z</time>
      </trkpt>
      <trkpt lat="45.25905" lon="-0.59946">
        <ele>16</ele>
        <time>2017-12-08T00:58:20Z</time>
      </trkpt>
      <trkpt lat="45.25895" lon="-0.59958">
        <ele>16</ele>
        <time>2017-12-08T01:00:20Z</time>
      </trkpt>
      <trkpt lat="45.25889" lon="-0.59967">
        <ele>16</ele>
        <time>2017-12-08T01:02:20Z</time>
      </trkpt>
      <trkpt lat="45.25866" lon="-0.60002">
        <ele>16</ele>
        <time>2017-12-08T01:04:20Z</time>
      </trkpt>
      <trkpt lat="45.25849" lon="-0.60027">
        <ele>16</ele>
        <time>2017-12-08T01:06:20Z</time>
      </trkpt>
      <trkpt lat="45.25835" lon="-0.60051">
        <ele>17</ele>
        <time>2017-12-08T01:08:20Z</time>
      </trkpt>
      <trkpt lat="45.25815" lon="-0.60085">
        <ele>17</ele>
        <time>2017-12-08T01:10:20Z</time>
      </trkpt>
      <trkpt lat="45.258" lon="-0.60111">
        <ele>17</ele>
        <time>2017-12-08T01:12:20Z</time>
      </trkpt>
      <trkpt lat="45.25782" lon="-0.60141">
        <ele>18</ele>
        <time>2017-12-08T01:14:20Z</time>
      </trkpt>
      <trkpt lat="45.25764" lon="-0.60172">
        <ele>18</ele>
        <time>2017-12-08T01:16:20Z</time>
      </trkpt>
      <trkpt lat="45.25752" lon="-0.60192">
        <ele>18</ele>
        <time>2017-12-08T01:18:20Z</time>
      </trkpt>
      <trkpt lat="45.25748" lon="-0.60198">
        <ele>18</ele>
        <time>2017-12-08T01:20:20Z</time>
      </trkpt>
      <trkpt lat="45.25748" lon="-0.60198">
        <ele>18</ele>
        <time>2017-12-08T01:22:20Z</time>
      </trkpt>
      <trkpt lat="45.25696" lon="-0.60171">
        <ele>19</ele>
        <time>2017-12-08T01:24:20Z</time>
      </trkpt>
      <trkpt lat="45.2567" lon="-0.60164">
        <ele>20</ele>
        <time>2017-12-08T01:26:20Z</time>
      </trkpt>
      <trkpt lat="45.2567" lon="-0.60164">
        <ele>20</ele>
        <time>2017-12-08T01:28:20Z</time>
      </trkpt>
      <trkpt lat="45.25668" lon="-0.6017">
        <ele>20</ele>
        <time>2017-12-08T01:30:20Z</time>
      </trkpt>
      <trkpt lat="45.25668" lon="-0.60178">
        <ele>20</ele>
        <time>2017-12-08T01:32:20Z</time>
      </trkpt>
      <trkpt lat="45.25667" lon="-0.60215">
        <ele>19</ele>
        <time>2017-12-08T01:34:20Z</time>
      </trkpt>
      <trkpt lat="45.25667" lon="-0.60223">
        <ele>19</ele>
        <time>2017-12-08T01:36:20Z</time>
      </trkpt>
      <trkpt lat="45.25665" lon="-0.60301">
        <ele>18</ele>
        <time>2017-12-08T01:38:20Z</time>
      </trkpt>
      <trkpt lat="45.25665" lon="-0.60309">
        <ele>18</ele>
        <time>2017-12-08T01:40:20Z</time>
      </trkpt>
      <trkpt lat="45.25656" lon="-0.60386">
        <ele>18</ele>
        <time>2017-12-08T01:42:20Z</time>
      </trkpt>
      <trkpt lat="45.25656" lon="-0.60386">
        <ele>18</ele>
        <time>2017-12-08T01:44:20Z</time>
      </trkpt>
      <trkpt lat="45.25649" lon="-0.60388">
        <ele>18</ele>
        <time>2017-12-08T01:46:20Z</time>
      </trkpt>
      <trkpt lat="45.25646" lon="-0.60389">
        <ele>18</ele>
        <time>2017-12-08T01:48:20Z</time>
      </trkpt>
      <trkpt lat="45.25642" lon="-0.6039">
        <ele>18</ele>
        <time>2017-12-08T01:50:20Z</time>
      </trkpt>
      <trkpt lat="45.25506" lon="-0.60474">
        <ele>17</ele>
        <time>2017-12-08T01:52:20Z</time>
      </trkpt>
      <trkpt lat="45.25476" lon="-0.60492">
        <ele>17</ele>
        <time>2017-12-08T01:54:20Z</time>
      </trkpt>
      <trkpt lat="45.2546" lon="-0.60505">
        <ele>17</ele>
        <time>2017-12-08T01:56:20Z</time>
      </trkpt>
      <trkpt lat="45.25448" lon="-0.60519">
        <ele>18</ele>
        <time>2017-12-08T01:58:20Z</time>
      </trkpt>
      <trkpt lat="45.25391" lon="-0.60594">
        <ele>18</ele>
        <time>2017-12-08T02:00:20Z</time>
      </trkpt>
      <trkpt lat="45.25388" lon="-0.60598">
        <ele>17</ele>
        <time>2017-12-08T02:02:20Z</time>
      </trkpt>
      <trkpt lat="45.25318" lon="-0.60682">
        <ele>19</ele>
        <time>2017-12-08T02:04:20Z</time>
      </trkpt>
      <trkpt lat="45.25214" lon="-0.60795">
        <ele>22</ele>
        <time>2017-12-08T02:06:20Z</time>
      </trkpt>
      <trkpt lat="45.25191" lon="-0.60823">
        <ele>22</ele>
        <time>2017-12-08T02:08:20Z</time>
      </trkpt>
      <trkpt lat="45.25184" lon="-0.60834">
        <ele>22</ele>
        <time>2017-12-08T02:10:20Z</time>
      </trkpt>
      <trkpt lat="45.25136" lon="-0.6092">
        <ele>21</ele>
        <time>2017-12-08T02:12:20Z</time>
      </trkpt>
      <trkpt lat="45.25121" lon="-0.60947">
        <ele>20</ele>
        <time>2017-12-08T02:14:20Z</time>
      </trkpt>
      <trkpt lat="45.25103" lon="-0.60977">
        <ele>20</ele>
        <time>2017-12-08T02:16:20Z</time>
      </trkpt>
      <trkpt lat="45.25077" lon="-0.61013">
        <ele>19</ele>
        <time>2017-12-08T02:18:20Z</time>
      </trkpt>
      <trkpt lat="45.25075" lon="-0.61016">
        <ele>19</ele>
        <time>2017-12-08T02:20:20Z</time>
      </trkpt>
      <trkpt lat="45.25074" lon="-0.61019">
        <ele>19</ele>
        <time>2017-12-08T02:22:20Z</time>
      </trkpt>
      <trkpt lat="45.25072" lon="-0.61027">
        <ele>19</ele>
        <time>2017-12-08T02:24:20Z</time>
      </trkpt>
      <trkpt lat="45.25072" lon="-0.61027">
        <ele>19</ele>
        <time>2017-12-08T02:26:20Z</time>
      </trkpt>
      <trkpt lat="45.25078" lon="-0.6103">
        <ele>19</ele>
        <time>2017-12-08T02:28:20Z</time>
      </trkpt>
      <trkpt lat="45.2508" lon="-0.61032">
        <ele>19</ele>
        <time>2017-12-08T02:30:20Z</time>
      </trkpt>
      <trkpt lat="45.25085" lon="-0.61035">
        <ele>20</ele>
        <time>2017-12-08T02:32:20Z</time>
      </trkpt>
      <trkpt lat="45.25099" lon="-0.61044">
        <ele>20</ele>
        <time>2017-12-08T02:34:20Z</time>
      </trkpt>
      <trkpt lat="45.25124" lon="-0.61059">
        <ele>22</ele>
        <time>2017-12-08T02:36:20Z</time>
      </trkpt>
      <trkpt lat="45.25132" lon="-0.61064">
        <ele>22</ele>
        <time>2017-12-08T02:38:20Z</time>
      </trkpt>
      <trkpt lat="45.2514" lon="-0.61065">
        <ele>23</ele>
        <time>2017-12-08T02:40:20Z</time>
      </trkpt>
      <trkpt lat="45.25148" lon="-0.61065">
        <ele>23</ele>
        <time>2017-12-08T02:42:20Z</time>
      </trkpt>
      <trkpt lat="45.25155" lon="-0.61063">
        <ele>23</ele>
        <time>2017-12-08T02:44:20Z</time>
      </trkpt>
      <trkpt lat="45.25167" lon="-0.6106">
        <ele>24</ele>
        <time>2017-12-08T02:46:20Z</time>
      </trkpt>
      <trkpt lat="45.25177" lon="-0.61055">
        <ele>24</ele>
        <time>2017-12-08T02:48:20Z</time>
      </trkpt>
      <trkpt lat="45.25198" lon="-0.6104">
        <ele>23</ele>
        <time>2017-12-08T02:50:20Z</time>
      </trkpt>
      <trkpt lat="45.25208" lon="-0.61034">
        <ele>23</ele>
        <time>2017-12-08T02:52:20Z</time>
      </trkpt>
      <trkpt lat="45.25217" lon="-0.61033">
        <ele>23</ele>
        <time>2017-12-08T02:54:20Z</time>
      </trkpt>
      <trkpt lat="45.25224" lon="-0.61033">
        <ele>22</ele>
        <time>2017-12-08T02:56:20Z</time>
      </trkpt>
      <trkpt lat="45.2523" lon="-0.61035">
        <ele>22</ele>
        <time>2017-12-08T02:58:20Z</time>
      </trkpt>
      <trkpt lat="45.25238" lon="-0.6104">
        <ele>22</ele>
        <time>2017-12-08T03:00:20Z</time>
      </trkpt>
      <trkpt lat="45.25244" lon="-0.61045">
        <ele>22</ele>
        <time>2017-12-08T03:02:20Z</time>
      </trkpt>
      <trkpt lat="45.2525" lon="-0.61052">
        <ele>22</ele>
        <time>2017-12-08T03:04:20Z</time>
      </trkpt>
      <trkpt lat="45.25257" lon="-0.61063">
        <ele>22</ele>
        <time>2017-12-08T03:06:20Z</time>
      </trkpt>
      <trkpt lat="45.25324" lon="-0.61194">
        <ele>20</ele>
        <time>2017-12-08T03:08:20Z</time>
      </trkpt>
      <trkpt lat="45.25337" lon="-0.61219">
        <ele>19</ele>
        <time>2017-12-08T03:10:20Z</time>
      </trkpt>
      <trkpt lat="45.25348" lon="-0.61243">
        <ele>19</ele>
        <time>2017-12-08T03:12:20Z</time>
      </trkpt>
      <trkpt lat="45.25363" lon="-0.6127">
        <ele>19</ele>
        <time>2017-12-08T03:14:20Z</time>
      </trkpt>
      <trkpt lat="45.25372" lon="-0.61284">
        <ele>18</ele>
        <time>2017-12-08T03:16:20Z</time>
      </trkpt>
      <trkpt lat="45.25391" lon="-0.61307">
        <ele>18</ele>
        <time>2017-12-08T03:18:20Z</time>
      </trkpt>
      <trkpt lat="45.25429" lon="-0.61348">
        <ele>16</ele>
        <time>2017-12-08T03:20:20Z</time>
      </trkpt>
      <trkpt lat="45.25442" lon="-0.61359">
        <ele>15</ele>
        <time>2017-12-08T03:22:20Z</time>
      </trkpt>
      <trkpt lat="45.25454" lon="-0.61367">
        <ele>14</ele>
        <time>2017-12-08T03:24:20Z</time>
      </trkpt>
      <trkpt lat="45.25471" lon="-0.61375">
        <ele>13</ele>
        <time>2017-12-08T03:26:20Z</time>
      </trkpt>
      <trkpt lat="45.25489" lon="-0.61384">
        <ele>12</ele>
        <time>2017-12-08T03:28:20Z</time>
      </trkpt>
      <trkpt lat="45.25497" lon="-0.61389">
        <ele>11</ele>
        <time>2017-12-08T03:30:20Z</time>
      </trkpt>
      <trkpt lat="45.25536" lon="-0.61418">
        <ele>11</ele>
        <time>2017-12-08T03:32:20Z</time>
      </trkpt>
      <trkpt lat="45.25639" lon="-0.61499">
        <ele>11</ele>
        <time>2017-12-08T03:34:20Z</time>
      </trkpt>
      <trkpt lat="45.25674" lon="-0.61525">
        <ele>11</ele>
        <time>2017-12-08T03:36:20Z</time>
      </trkpt>
      <trkpt lat="45.25674" lon="-0.61525">
        <ele>11</ele>
        <time>2017-12-08T03:38:20Z</time>
      </trkpt>
      <trkpt lat="45.25683" lon="-0.61496">
        <ele>11</ele>
        <time>2017-12-08T03:40:20Z</time>
      </trkpt>
      <trkpt lat="45.25688" lon="-0.61483">
        <ele>11</ele>
        <time>2017-12-08T03:42:20Z</time>
      </trkpt>
      <trkpt lat="45.25699" lon="-0.61457">
        <ele>11</ele>
        <time>2017-12-08T03:44:20Z</time>
      </trkpt>
      <trkpt lat="45.25713" lon="-0.61421">
        <ele>11</ele>
        <time>2017-12-08T03:46:20Z</time>
      </trkpt>
      <trkpt lat="45.25727" lon="-0.61379">
        <ele>11</ele>
        <time>2017-12-08T03:48:20Z</time>
      </trkpt>
      <trkpt lat="45.25747" lon="-0.61324">
        <ele>11</ele>
        <time>2017-12-08T03:50:20Z</time>
      </trkpt>
      <trkpt lat="45.25756" lon="-0.61304">
        <ele>11</ele>
        <time>2017-12-08T03:52:20Z</time>
      </trkpt>
      <trkpt lat="45.25766" lon="-0.61282">
        <ele>10</ele>
        <time>2017-12-08T03:54:20Z</time>
      </trkpt>
      <trkpt lat="45.25766" lon="-0.61282">
        <ele>10</ele>
        <time>2017-12-08T03:56:20Z</time>
      </trkpt>
      <trkpt lat="45.25771" lon="-0.61286">
        <ele>10</ele>
        <time>2017-12-08T03:58:20Z</time>
      </trkpt>
      <trkpt lat="45.25776" lon="-0.61289">
        <ele>10</ele>
        <time>2017-12-08T04:00:20Z</time>
      </trkpt>
      <trkpt lat="45.25781" lon="-0.61291">
        <ele>10</ele>
        <time>2017-12-08T04:02:20Z</time>
      </trkpt>
      <trkpt lat="45.25787" lon="-0.61293">
        <ele>9</ele>
        <time>2017-12-08T04:04:20Z</time>
      </trkpt>
      <trkpt lat="45.25797" lon="-0.61296">
        <ele>9</ele>
        <time>2017-12-08T04:06:20Z</time>
      </trkpt>
      <trkpt lat="45.25861" lon="-0.61309">
        <ele>8</ele>
        <time>2017-12-08T04:08:20Z</time>
      </trkpt>
      <trkpt lat="45.25884" lon="-0.61314">
        <ele>8</ele>
        <time>2017-12-08T04:10:20Z</time>
      </trkpt>
      <trkpt lat="45.25896" lon="-0.61319">
        <ele>8</ele>
        <time>2017-12-08T04:12:20Z</time>
      </trkpt>
      <trkpt lat="45.25896" lon="-0.61319">
        <ele>8</ele>
        <time>2017-12-08T04:14:20Z</time>
      </trkpt>
      <trkpt lat="45.25922" lon="-0.61336">
        <ele>8</ele>
        <time>2017-12-08T04:16:20Z</time>
      </trkpt>
      <trkpt lat="45.25944" lon="-0.6135">
        <ele>8</ele>
        <time>2017-12-08T04:18:20Z</time>
      </trkpt>
      <trkpt lat="45.25962" lon="-0.61365">
        <ele>9</ele>
        <time>2017-12-08T04:20:20Z</time>
      </trkpt>
      <trkpt lat="45.25982" lon="-0.61386">
        <ele>9</ele>
        <time>2017-12-08T04:22:20Z</time>
      </trkpt>
      <trkpt lat="45.25996" lon="-0.61407">
        <ele>10</ele>
        <time>2017-12-08T04:24:20Z</time>
      </trkpt>
      <trkpt lat="45.26013" lon="-0.61439">
        <ele>10</ele>
        <time>2017-12-08T04:26:20Z</time>
      </trkpt>
      <trkpt lat="45.2603" lon="-0.61477">
        <ele>10</ele>
        <time>2017-12-08T04:28:20Z</time>
      </trkpt>
      <trkpt lat="45.26039" lon="-0.61505">
        <ele>10</ele>
        <time>2017-12-08T04:30:20Z</time>
      </trkpt>
      <trkpt lat="45.26043" lon="-0.61525">
        <ele>9</ele>
        <time>2017-12-08T04:32:20Z</time>
      </trkpt>
      <trkpt lat="45.26045" lon="-0.6154">
        <ele>9</ele>
        <time>2017-12-08T04:34:20Z</time>
      </trkpt>
      <trkpt lat="45.26045" lon="-0.6159">
        <ele>8</ele>
        <time>2017-12-08T04:36:20Z</time>
      </trkpt>
      <trkpt lat="45.26046" lon="-0.61612">
        <ele>8</ele>
        <time>2017-12-08T04:38:20Z</time>
      </trkpt>
      <trkpt lat="45.26047" lon="-0.61634">
        <ele>8</ele>
        <time>2017-12-08T04:40:20Z</time>
      </trkpt>
      <trkpt lat="45.26049" lon="-0.61657">
        <ele>8</ele>
        <time>2017-12-08T04:42:20Z</time>
      </trkpt>
      <trkpt lat="45.26053" lon="-0.61682">
        <ele>8</ele>
        <time>2017-12-08T04:44:20Z</time>
      </trkpt>
      <trkpt lat="45.26059" lon="-0.61706">
        <ele>8</ele>
        <time>2017-12-08T04:46:20Z</time>
      </trkpt>
      <trkpt lat="45.26077" lon="-0.61762">
        <ele>7</ele>
        <time>2017-12-08T04:48:20Z</time>
      </trkpt>
      <trkpt lat="45.26101" lon="-0.61826">
        <ele>6</ele>
        <time>2017-12-08T04:50:20Z</time>
      </trkpt>
      <trkpt lat="45.26121" lon="-0.61881">
        <ele>6</ele>
        <time>2017-12-08T04:52:20Z</time>
      </trkpt>
      <trkpt lat="45.26146" lon="-0.61951">
        <ele>6</ele>
        <time>2017-12-08T04:54:20Z</time>
      </trkpt>
      <trkpt lat="45.26155" lon="-0.61976">
        <ele>6</ele>
        <time>2017-12-08T04:56:20Z</time>
      </trkpt>
      <trkpt lat="45.26157" lon="-0.61984">
        <ele>6</ele>
        <time>2017-12-08T04:58:20Z</time>
      </trkpt>
      <trkpt lat="45.26158" lon="-0.6199">
        <ele>6</ele>
        <time>2017-12-08T05:00:20Z</time>
      </trkpt>
      <trkpt lat="45.26159" lon="-0.61996">
        <ele>6</ele>
        <time>2017-12-08T05:02:20Z</time>
      </trkpt>
      <trkpt lat="45.2616" lon="-0.62">
        <ele>6</ele>
        <time>2017-12-08T05:04:20Z</time>
      </trkpt>
      <trkpt lat="45.26159" lon="-0.62022">
        <ele>6</ele>
        <time>2017-12-08T05:06:20Z</time>
      </trkpt>
      <trkpt lat="45.26159" lon="-0.62041">
        <ele>6</ele>
        <time>2017-12-08T05:08:20Z</time>
      </trkpt>
      <trkpt lat="45.2616" lon="-0.62055">
        <ele>5</ele>
        <time>2017-12-08T05:10:20Z</time>
      </trkpt>
      <trkpt lat="45.2616" lon="-0.62066">
        <ele>5</ele>
        <time>2017-12-08T05:12:20Z</time>
      </trkpt>
      <trkpt lat="45.26161" lon="-0.6208">
        <ele>5</ele>
        <time>2017-12-08T05:14:20Z</time>
      </trkpt>
      <trkpt lat="45.26161" lon="-0.62083">
        <ele>5</ele>
        <time>2017-12-08T05:16:20Z</time>
      </trkpt>
      <trkpt lat="45.26162" lon="-0.62092">
        <ele>5</ele>
        <time>2017-12-08T05:18:20Z</time>
      </trkpt>
      <trkpt lat="45.26163" lon="-0.62095">
        <ele>5</ele>
        <time>2017-12-08T05:20:20Z</time>
      </trkpt>
      <trkpt lat="45.26164" lon="-0.62101">
        <ele>5</ele>
        <time>2017-12-08T05:22:20Z</time>
      </trkpt>
      <trkpt lat="45.26166" lon="-0.62104">
        <ele>5</ele>
        <time>2017-12-08T05:24:20Z</time>
      </trkpt>
      <trkpt lat="45.26166" lon="-0.62104">
        <ele>5</ele>
        <time>2017-12-08T05:26:20Z</time>
      </trkpt>
      <trkpt lat="45.26179" lon="-0.62097">
        <ele>5</ele>
        <time>2017-12-08T05:28:20Z</time>
      </trkpt>
      <trkpt lat="45.26218" lon="-0.62077">
        <ele>5</ele>
        <time>2017-12-08T05:30:20Z</time>
      </trkpt>
      <trkpt lat="45.26257" lon="-0.62056">
        <ele>5</ele>
        <time>2017-12-08T05:32:20Z</time>
      </trkpt>
      <trkpt lat="45.26263" lon="-0.62053">
        <ele>6</ele>
        <time>2017-12-08T05:34:20Z</time>
      </trkpt>
      <trkpt lat="45.26288" lon="-0.6204">
        <ele>6</ele>
        <time>2017-12-08T05:36:20Z</time>
      </trkpt>
      <trkpt lat="45.26294" lon="-0.62036">
        <ele>6</ele>
        <time>2017-12-08T05:38:20Z</time>
      </trkpt>
    </trkseg>
  </trk>
</gpx>